createdAt,value
2022-08-22T00:02:15.620Z,3.96
2022-08-22T00:02:49.633Z,3.37
2022-08-22T00:04:45.711Z,3.96
2022-08-22T00:07:15.991Z,4
2022-08-22T00:09:46.299Z,3.99
2022-08-22T00:12:16.578Z,3.96
2022-08-22T00:14:46.919Z,4.01
2022-08-22T00:17:17.317Z,4.06
2022-08-22T00:19:47.533Z,4.11
2022-08-22T00:22:17.828Z,4.11
2022-08-22T00:24:48.156Z,4.15
2022-08-22T00:27:18.438Z,4.24
2022-08-22T00:29:48.819Z,4.28
2022-08-22T00:32:19.189Z,4.21
2022-08-22T00:34:49.388Z,4.19
2022-08-22T00:37:19.686Z,4.12
2022-08-22T00:39:50.133Z,4.16
2022-08-22T00:42:31.666Z,4.15
2022-08-22T00:44:50.653Z,4.12
2022-08-22T00:47:20.942Z,4.06
2022-08-22T00:49:51.250Z,4.1
2022-08-22T00:52:21.559Z,4.06
2022-08-22T00:54:51.900Z,4.09
2022-08-22T00:57:22.190Z,4.11
2022-08-22T00:59:52.533Z,4.2
2022-08-22T01:02:22.859Z,4.2
2022-08-22T01:04:53.151Z,4.22
2022-08-22T01:07:23.437Z,4.23
2022-08-22T01:09:53.767Z,4.24
2022-08-22T01:12:24.136Z,4.34
2022-08-22T01:14:54.394Z,4.34
2022-08-22T01:17:24.713Z,4.38
2022-08-22T01:19:55.016Z,4.38
2022-08-22T01:22:25.305Z,4.37
2022-08-22T01:24:55.741Z,4.34
2022-08-22T01:27:25.665Z,4.41
2022-08-22T01:29:56.026Z,4.45
2022-08-22T01:32:26.420Z,4.45
2022-08-22T01:34:56.759Z,4.44
2022-08-22T01:37:26.938Z,4.44
2022-08-22T01:39:57.350Z,4.44
2022-08-22T01:42:27.757Z,4.44
2022-08-22T01:44:57.892Z,4.47
2022-08-22T01:47:28.269Z,4.47
2022-08-22T01:49:58.597Z,4.54
2022-08-22T01:52:28.806Z,4.52
2022-08-22T01:54:59.156Z,4.47
2022-08-22T01:57:29.446Z,4.46
2022-08-22T01:59:59.772Z,4.42
2022-08-22T02:02:30.497Z,4.4
2022-08-22T02:05:01.364Z,4.47
2022-08-22T02:07:32.219Z,4.47
2022-08-22T02:10:02.149Z,4.57
2022-08-22T02:12:32.391Z,4.49
2022-08-22T02:15:02.766Z,4.54
2022-08-22T02:17:33.029Z,4.6
2022-08-22T02:20:03.324Z,4.62
2022-08-22T02:22:33.606Z,4.55
2022-08-22T02:25:03.947Z,4.53
2022-08-22T02:27:34.824Z,4.54
2022-08-22T02:30:05.127Z,4.5
2022-08-22T02:32:35.458Z,4.5
2022-08-22T02:35:05.774Z,4.52
2022-08-22T02:37:36.053Z,4.53
2022-08-22T02:40:06.549Z,4.49
2022-08-22T02:42:37.246Z,4.5
2022-08-22T02:45:07.606Z,4.59
2022-08-22T02:47:37.936Z,4.69
2022-08-22T02:50:12.788Z,4.72
2022-08-22T02:52:38.569Z,4.72
2022-08-22T02:55:08.937Z,4.76
2022-08-22T02:57:39.868Z,4.76
2022-08-22T03:00:30.818Z,4.79
2022-08-22T03:02:39.916Z,4.78
2022-08-22T03:05:10.231Z,4.75
2022-08-22T03:07:40.545Z,4.75
2022-08-22T03:10:10.923Z,4.75
2022-08-22T03:12:41.197Z,4.81
2022-08-22T03:15:11.551Z,4.77
2022-08-22T03:17:41.891Z,4.81
2022-08-22T03:20:12.203Z,4.79
2022-08-22T03:22:42.532Z,4.8
2022-08-22T03:25:12.976Z,4.81
2022-08-22T03:27:45.351Z,4.81
2022-08-22T03:30:14.090Z,4.81
2022-08-22T03:32:44.405Z,4.79
2022-08-22T03:35:14.787Z,4.81
2022-08-22T03:37:45.006Z,4.76
2022-08-22T03:40:15.415Z,4.81
2022-08-22T03:42:45.657Z,4.84
2022-08-22T03:45:15.957Z,4.88
2022-08-22T03:47:46.282Z,4.99
2022-08-22T03:50:16.730Z,5
2022-08-22T03:52:46.909Z,5
2022-08-22T03:55:17.261Z,4.98
2022-08-22T03:57:47.551Z,4.99
2022-08-22T04:00:17.920Z,5.02
2022-08-22T04:02:48.234Z,5.01
2022-08-22T04:05:18.572Z,4.93
2022-08-22T04:07:48.864Z,4.93
2022-08-22T04:10:19.243Z,4.94
2022-08-22T04:12:49.650Z,5
2022-08-22T04:15:20.500Z,5.03
2022-08-22T04:17:50.879Z,5.02
2022-08-22T04:20:21.164Z,5.04
2022-08-22T04:22:51.501Z,5.16
2022-08-22T04:25:21.975Z,5.2
2022-08-22T04:27:52.301Z,5.26
2022-08-22T04:30:22.270Z,5.23
2022-08-22T04:32:52.733Z,5.26
2022-08-22T04:35:22.991Z,5.22
2022-08-22T04:37:53.325Z,5.26
2022-08-22T04:40:23.468Z,5.24
2022-08-22T04:42:53.870Z,5.16
2022-08-22T04:45:24.143Z,5.16
2022-08-22T04:47:54.510Z,5.11
2022-08-22T04:50:24.927Z,5.08
2022-08-22T04:52:55.191Z,5.01
2022-08-22T04:55:25.571Z,5.11
2022-08-22T04:57:55.706Z,5.1
2022-08-22T05:00:25.997Z,5.11
2022-08-22T05:02:56.378Z,5.1
2022-08-22T05:05:26.483Z,5.06
2022-08-22T05:07:56.535Z,5.09
2022-08-22T05:10:26.837Z,5.12
2022-08-22T05:12:57.106Z,5.15
2022-08-22T05:15:27.189Z,5.19
2022-08-22T05:17:57.800Z,5.26
2022-08-22T05:20:27.935Z,5.18
2022-08-22T05:22:58.253Z,5.19
2022-08-22T05:25:28.626Z,5.26
2022-08-22T05:27:59.134Z,5.27
2022-08-22T05:30:29.358Z,5.3
2022-08-22T05:32:59.947Z,5.27
2022-08-22T05:35:30.291Z,5.26
2022-08-22T05:38:00.704Z,5.2
2022-08-22T05:40:31.321Z,5.3
2022-08-22T05:43:01.656Z,5.29
2022-08-22T05:45:32.035Z,5.29
2022-08-22T05:48:02.444Z,5.27
2022-08-22T05:50:32.757Z,5.16
2022-08-22T05:53:02.809Z,5.22
2022-08-22T05:55:33.188Z,5.23
2022-08-22T05:58:03.514Z,5.18
2022-08-22T06:00:33.610Z,5.11
2022-08-22T06:03:03.998Z,5.09
2022-08-22T06:05:34.296Z,5.15
2022-08-22T06:08:04.613Z,5.09
2022-08-22T06:10:35.040Z,5.05
2022-08-22T06:13:05.276Z,5.03
2022-08-22T06:15:35.633Z,4.98
2022-08-22T06:18:05.628Z,4.74
2022-08-22T06:20:35.941Z,4.8
2022-08-22T06:23:05.937Z,4.62
2022-08-22T06:25:36.345Z,4.7
2022-08-22T06:28:06.525Z,4.74
2022-08-22T06:30:36.850Z,4.56
2022-08-22T06:33:07.165Z,4.62
2022-08-22T06:35:37.566Z,4.52
2022-08-22T06:38:07.710Z,4.56
2022-08-22T06:40:38.046Z,4.63
2022-08-22T06:43:08.863Z,4.69
2022-08-22T06:45:39.780Z,4.61
2022-08-22T06:48:10.040Z,4.48
2022-08-22T06:50:40.324Z,4.59
2022-08-22T06:53:10.591Z,4.66
2022-08-22T06:55:41.458Z,4.52
2022-08-22T06:58:11.721Z,4.57
2022-08-22T07:00:42.058Z,4.6
2022-08-22T07:03:12.903Z,4.56
2022-08-22T07:05:43.754Z,4.59
2022-08-22T07:08:14.574Z,4.69
2022-08-22T07:10:44.891Z,4.74
2022-08-22T07:13:15.681Z,4.56
2022-08-22T07:15:46.010Z,4.43
2022-08-22T07:18:16.849Z,4.3
2022-08-22T07:20:47.259Z,4.42
2022-08-22T07:23:17.934Z,4.47
2022-08-22T07:25:48.240Z,4.4
2022-08-22T07:28:18.495Z,4.46
2022-08-22T07:30:49.409Z,4.44
2022-08-22T07:33:26.513Z,4.39
2022-08-22T07:35:53.379Z,4.43
2022-08-22T07:38:20.192Z,4.49
2022-08-22T07:40:51.075Z,4.28
2022-08-22T07:43:21.341Z,4.4
2022-08-22T07:45:51.666Z,4.37
2022-08-22T07:48:26.076Z,4.31
2022-08-22T07:50:52.315Z,4.2
2022-08-22T07:53:22.476Z,4.35
2022-08-22T07:55:52.868Z,4.42
2022-08-22T07:58:23.015Z,4.17
2022-08-22T08:00:53.310Z,4.27
2022-08-22T08:03:23.578Z,4.42
2022-08-22T08:05:53.979Z,4.31
2022-08-22T08:08:24.535Z,4.22
2022-08-22T08:10:55.221Z,4.04
2022-08-22T08:13:25.261Z,3.93
2022-08-22T08:15:55.622Z,4.2
2022-08-22T08:18:26.227Z,4.2
2022-08-22T08:20:56.915Z,4.11
2022-08-22T08:23:27.560Z,4.01
2022-08-22T08:25:57.965Z,4.05
2022-08-22T08:28:28.545Z,3.92
2022-08-22T08:30:58.861Z,4.17
2022-08-22T08:33:29.686Z,4.35
2022-08-22T08:36:02.923Z,4.33
2022-08-22T08:38:30.207Z,4.42
2022-08-22T08:41:00.483Z,3.93
2022-08-22T08:43:30.697Z,3.9
2022-08-22T08:46:00.964Z,4.02
2022-08-22T08:48:31.170Z,4.01
2022-08-22T08:51:02.097Z,4.12
2022-08-22T08:53:31.637Z,4.02
2022-08-22T08:56:01.898Z,3.84
2022-08-22T08:58:32.201Z,3.92
2022-08-22T09:01:02.617Z,3.89
2022-08-22T09:03:32.796Z,4.17
2022-08-22T09:06:03.076Z,4.2
2022-08-22T09:08:33.373Z,4.11
2022-08-22T09:11:03.567Z,3.87
2022-08-22T09:13:40.629Z,3.75
2022-08-22T09:16:04.708Z,3.9
2022-08-22T09:18:34.240Z,4.08
2022-08-22T09:21:04.465Z,4.03
2022-08-22T09:23:34.668Z,3.68
2022-08-22T09:26:05.113Z,3.77
2022-08-22T09:28:35.297Z,3.53
2022-08-22T09:31:21.944Z,3.88
2022-08-22T09:33:36.248Z,4.22
2022-08-22T09:36:06.549Z,3.66
2022-08-22T09:38:36.730Z,3.65
2022-08-22T09:41:07.539Z,3.84
2022-08-22T09:43:37.895Z,4.03
2022-08-22T09:46:08.453Z,3.74
2022-08-22T09:48:38.607Z,3.86
2022-08-22T09:51:31.238Z,3.92
2022-08-22T09:53:38.969Z,3.76
2022-08-22T09:56:11.657Z,3.87
2022-08-22T09:58:41.628Z,3.65
2022-08-22T10:01:09.723Z,3.76
2022-08-22T10:03:39.879Z,3.76
2022-08-22T10:06:10.167Z,3.57
2022-08-22T10:08:40.336Z,3.81
2022-08-22T10:11:10.579Z,3.83
2022-08-22T10:13:40.834Z,3.83
2022-08-22T10:16:11.011Z,3.63
2022-08-22T10:18:44.036Z,3.55
2022-08-22T10:21:12.029Z,3.77
2022-08-22T10:23:42.222Z,3.76
2022-08-22T10:26:12.450Z,3.54
2022-08-22T10:28:42.649Z,3.77
2022-08-22T10:31:12.857Z,3.46
2022-08-22T10:33:44.403Z,3.32
2022-08-22T10:36:13.318Z,3.35
2022-08-22T10:38:46.526Z,3.6
2022-08-22T10:41:13.688Z,3.55
2022-08-22T10:43:44.012Z,3.31
2022-08-22T10:46:14.228Z,3.31
2022-08-22T10:48:44.302Z,3.23
2022-08-22T10:51:14.525Z,3.61
2022-08-22T10:53:44.694Z,3.38
2022-08-22T10:56:14.930Z,3.22
2022-08-22T10:58:45.330Z,3.3
2022-08-22T11:01:38.187Z,3.22
2022-08-22T11:03:45.729Z,3.18
2022-08-22T11:06:16.038Z,3.18
2022-08-22T11:08:46.133Z,3.16
2022-08-22T11:11:16.354Z,3.1
2022-08-22T11:13:47.093Z,3.02
2022-08-22T11:16:17.300Z,3.18
2022-08-22T11:18:57.796Z,3.12
2022-08-22T11:21:17.744Z,2.95
2022-08-22T11:23:47.904Z,3.1
2022-08-22T11:26:29.165Z,3.04
2022-08-22T11:28:48.294Z,3.02
2022-08-22T11:31:18.497Z,3.17
2022-08-22T11:33:48.790Z,2.83
2022-08-22T11:36:18.876Z,2.89
2022-08-22T11:38:49.029Z,2.74
2022-08-22T11:41:19.237Z,2.79
2022-08-22T11:43:49.411Z,3.03
2022-08-22T11:46:19.941Z,2.62
2022-08-22T11:48:49.777Z,2.74
2022-08-22T11:51:23.144Z,2.48
2022-08-22T11:53:50.144Z,2.54
2022-08-22T11:56:20.334Z,2.6
2022-08-22T11:58:50.582Z,2.76
2022-08-22T12:01:20.981Z,2.69
2022-08-22T12:03:51.020Z,2.56
2022-08-22T12:06:21.097Z,2.56
2022-08-22T12:08:51.340Z,2.74
2022-08-22T12:11:21.401Z,2.74
2022-08-22T12:13:51.698Z,2.34
2022-08-22T12:16:21.746Z,2.49
2022-08-22T12:18:52.988Z,2.44
2022-08-22T12:21:22.144Z,2.3
2022-08-22T12:23:52.210Z,2.24
2022-08-22T12:26:22.452Z,2.12
2022-08-22T12:28:52.522Z,2.31
2022-08-22T12:31:23.277Z,2.28
2022-08-22T12:33:53.418Z,2.27
2022-08-22T12:36:23.638Z,2.34
2022-08-22T12:38:53.753Z,2.36
2022-08-22T12:41:28.010Z,2.42
2022-08-22T12:43:54.042Z,2.34
2022-08-22T12:46:24.300Z,1.94
2022-08-22T12:48:54.412Z,1.78
2022-08-22T12:51:24.570Z,1.99
2022-08-22T12:53:54.655Z,2.19
2022-08-22T12:56:24.740Z,2.01
2022-08-22T12:58:54.877Z,2.22
2022-08-22T13:01:33.956Z,2.24
2022-08-22T13:03:55.139Z,2.21
2022-08-22T13:06:25.317Z,2.4
2022-08-22T13:08:55.397Z,2.39
2022-08-22T13:11:25.601Z,2.6
2022-08-22T13:13:56.196Z,2.07
2022-08-22T13:16:25.837Z,2.37
2022-08-22T13:18:55.904Z,2.43
2022-08-22T13:21:26.060Z,2.49
2022-08-22T13:23:56.131Z,2.51
2022-08-22T13:26:32.005Z,2.38
2022-08-22T13:29:15.249Z,2.22
2022-08-22T13:31:26.477Z,2.05
2022-08-22T13:33:56.549Z,2.33
2022-08-22T13:36:26.789Z,2.3
2022-08-22T13:38:56.737Z,2.1
2022-08-22T13:41:26.872Z,2.05
2022-08-22T13:43:56.925Z,1.89
2022-08-22T13:46:28.144Z,2.24
2022-08-22T13:49:00.805Z,2.54
2022-08-22T13:51:27.348Z,2.43
2022-08-22T13:54:00.635Z,2.3
2022-08-22T13:56:27.401Z,2.15
2022-08-22T13:58:57.462Z,2
2022-08-22T14:01:28.383Z,2.04
2022-08-22T14:03:57.702Z,2.18
2022-08-22T14:06:36.814Z,1.86
2022-08-22T14:08:57.812Z,1.93
2022-08-22T14:11:27.919Z,1.67
2022-08-22T14:13:57.988Z,1.75
2022-08-22T14:16:28.087Z,1.82
2022-08-22T14:18:58.149Z,1.62
2022-08-22T14:21:28.331Z,1.59
2022-08-22T14:23:58.391Z,1.79
2022-08-22T14:26:33.139Z,1.91
2022-08-22T14:28:58.605Z,1.61
2022-08-22T14:31:28.740Z,2.05
2022-08-22T14:33:58.825Z,1.99
2022-08-22T14:36:28.989Z,1.46
2022-08-22T14:38:59.035Z,1.46
2022-08-22T14:41:56.010Z,1.77
2022-08-22T14:43:59.314Z,1.89
2022-08-22T14:46:29.442Z,2.05
2022-08-22T14:48:59.570Z,1.92
2022-08-22T14:51:29.707Z,1.89
2022-08-22T14:53:59.683Z,1.98
2022-08-22T14:56:29.929Z,1.51
2022-08-22T14:58:59.905Z,1.48
2022-08-22T15:01:33.067Z,1.59
2022-08-22T15:04:00.141Z,1.47
2022-08-22T15:06:30.408Z,1.72
2022-08-22T15:09:00.403Z,1.57
2022-08-22T15:11:31.920Z,1.48
2022-08-22T15:14:00.614Z,1.47
2022-08-22T15:16:30.756Z,1.78
2022-08-22T15:19:00.857Z,1.76
2022-08-22T15:21:31.024Z,2.13
2022-08-22T15:24:01.076Z,2.27
2022-08-22T15:26:31.209Z,2.1
2022-08-22T15:29:01.296Z,1.88
2022-08-22T15:31:31.435Z,1.94
2022-08-22T15:34:01.516Z,1.73
2022-08-22T15:36:31.672Z,1.5
2022-08-22T15:39:01.757Z,1.5
2022-08-22T15:41:36.678Z,1.54
2022-08-22T15:44:01.967Z,1.46
2022-08-22T15:46:32.658Z,1.55
2022-08-22T15:49:02.760Z,1.62
2022-08-22T15:51:32.931Z,1.58
2022-08-22T15:54:02.993Z,1.72
2022-08-22T15:56:33.136Z,1.79
2022-08-22T15:59:03.239Z,2.01
2022-08-22T16:01:33.459Z,1.75
2022-08-22T16:04:03.473Z,1.96
2022-08-22T16:06:33.642Z,1.99
2022-08-22T16:09:03.705Z,2.22
2022-08-22T16:11:33.934Z,2.29
2022-08-22T16:14:03.942Z,2.51
2022-08-22T16:16:34.083Z,2.59
2022-08-22T16:19:04.186Z,2.37
2022-08-22T16:21:34.366Z,2.61
2022-08-22T16:24:04.423Z,2.58
2022-08-22T16:26:34.552Z,2.67
2022-08-22T16:29:04.651Z,2.49
2022-08-22T16:31:34.814Z,2.44
2022-08-22T16:34:05.004Z,2.37
2022-08-22T16:36:35.146Z,2.51
2022-08-22T16:39:05.251Z,2.71
2022-08-22T16:41:35.310Z,2.87
2022-08-22T16:44:05.475Z,3.04
2022-08-22T16:46:36.672Z,3.24
2022-08-22T16:49:05.684Z,3.29
2022-08-22T16:51:35.875Z,3.2
2022-08-22T16:54:05.942Z,3.25
2022-08-22T16:56:36.105Z,3.3
2022-08-22T16:59:19.685Z,3.14
2022-08-22T17:01:36.499Z,3.09
2022-08-22T17:04:06.498Z,3.1
2022-08-22T17:06:36.701Z,2.93
2022-08-22T17:09:06.885Z,2.98
2022-08-22T17:11:36.932Z,2.98
2022-08-22T17:14:07.216Z,3.24
2022-08-22T17:16:37.207Z,3.22
2022-08-22T17:19:07.364Z,2.83
2022-08-22T17:21:37.531Z,2.65
2022-08-22T17:24:07.661Z,2.47
2022-08-22T17:26:37.913Z,2.47
2022-08-22T17:29:08.165Z,2.39
2022-08-22T17:31:38.945Z,2.51
2022-08-22T17:34:09.188Z,2.54
2022-08-22T17:36:39.300Z,2.64
2022-08-22T17:39:09.966Z,2.63
2022-08-22T17:41:40.250Z,2.56
2022-08-22T17:44:10.735Z,2.65
2022-08-22T17:46:41.594Z,2.68
2022-08-22T17:49:11.877Z,2.63
2022-08-22T17:51:41.918Z,2.66
2022-08-22T17:54:12.000Z,2.61
2022-08-22T17:56:42.111Z,2.79
2022-08-22T18:01:42.509Z,2.93
2022-08-22T18:04:12.457Z,2.91
2022-08-22T18:06:42.647Z,3.02
2022-08-22T18:09:14.190Z,2.98
2022-08-22T18:11:42.879Z,2.92
2022-08-22T18:14:13.025Z,2.96
2022-08-22T18:16:43.146Z,3.14
2022-08-22T18:19:13.250Z,3.1
2022-08-22T18:21:43.431Z,3.14
2022-08-22T18:24:13.733Z,3.11
2022-08-22T18:26:43.837Z,3.17
2022-08-22T18:29:13.785Z,3.22
2022-08-22T18:31:43.966Z,3.21
2022-08-22T18:34:14.089Z,3.23
2022-08-22T18:36:44.294Z,3.3
2022-08-22T18:39:14.380Z,3.29
2022-08-22T18:41:44.720Z,3.26
2022-08-22T18:44:14.752Z,3.32
2022-08-22T18:46:45.073Z,3.24
2022-08-22T18:49:15.970Z,3.31
2022-08-22T18:51:45.184Z,3.51
2022-08-22T18:54:15.294Z,3.37
2022-08-22T18:56:45.463Z,3.34
2022-08-22T18:59:15.584Z,3.39
2022-08-22T19:01:45.841Z,3.51
2022-08-22T19:04:16.557Z,3.48
2022-08-22T19:06:46.667Z,3.58
2022-08-22T19:09:16.790Z,3.62
2022-08-22T19:11:47.111Z,3.54
2022-08-22T19:14:17.128Z,3.61
2022-08-22T19:16:47.324Z,3.67
2022-08-22T19:19:17.779Z,3.63
2022-08-22T19:21:47.725Z,3.73
2022-08-22T19:24:17.813Z,3.67
2022-08-22T19:26:48.021Z,3.62
2022-08-22T19:29:18.246Z,3.56
2022-08-22T19:31:48.382Z,3.48
2022-08-22T19:34:18.567Z,3.5
2022-08-22T19:36:48.841Z,3.44
2022-08-22T19:39:18.962Z,3.48
2022-08-22T19:41:49.216Z,3.51
2022-08-22T19:44:19.370Z,3.37
2022-08-22T19:46:49.600Z,3.47
2022-08-22T19:49:19.770Z,3.44
2022-08-22T19:51:50.075Z,3.44
2022-08-22T19:54:20.192Z,3.63
2022-08-22T19:56:50.547Z,3.67
2022-08-22T19:59:20.638Z,3.72
2022-08-22T20:01:50.863Z,3.69
2022-08-22T20:04:21.031Z,3.84
2022-08-22T20:06:51.306Z,3.93
2022-08-22T20:09:21.479Z,3.92
2022-08-22T20:11:51.713Z,3.81
2022-08-22T20:14:28.488Z,3.84
2022-08-22T20:16:52.185Z,3.9
2022-08-22T20:19:22.343Z,3.71
2022-08-22T20:21:52.608Z,3.68
2022-08-22T20:24:22.779Z,3.47
2022-08-22T20:27:12.636Z,3.71
2022-08-22T20:29:23.228Z,3.71
2022-08-22T20:31:56.752Z,3.59
2022-08-22T20:34:23.658Z,3.58
2022-08-22T20:37:09.802Z,3.6
2022-08-22T20:39:24.666Z,3.69
2022-08-22T20:41:55.017Z,3.63
2022-08-22T20:44:25.239Z,3.6
2022-08-22T20:46:55.520Z,3.6
2022-08-22T20:49:25.650Z,3.69
2022-08-22T20:51:55.943Z,3.58
2022-08-22T20:54:26.096Z,3.57
2022-08-22T20:56:56.352Z,3.54
2022-08-22T20:59:26.539Z,3.57
2022-08-22T21:01:56.794Z,3.67
2022-08-22T21:04:27.036Z,3.54
2022-08-22T21:06:57.364Z,3.54
2022-08-22T21:09:27.546Z,3.47
2022-08-22T21:11:57.792Z,3.51
2022-08-22T21:14:27.916Z,3.72
2022-08-22T21:16:58.171Z,3.72
2022-08-22T21:19:28.361Z,3.74
2022-08-22T21:21:58.710Z,3.68
2022-08-22T21:24:28.798Z,3.72
2022-08-22T21:26:59.068Z,3.58
2022-08-22T21:29:34.016Z,3.65
2022-08-22T21:32:04.648Z,3.64
2022-08-22T21:34:29.733Z,3.64
2022-08-22T21:37:00.041Z,3.66
2022-08-22T21:39:30.213Z,3.68
2022-08-22T21:42:00.480Z,3.63
2022-08-22T21:44:30.711Z,3.71
2022-08-22T21:47:01.066Z,3.74
2022-08-22T21:49:31.210Z,3.65
2022-08-22T21:52:01.605Z,3.6
2022-08-22T21:54:31.703Z,3.68
2022-08-22T21:57:02.555Z,3.63
2022-08-22T21:59:43.141Z,3.69
2022-08-22T22:02:03.162Z,3.75
2022-08-22T22:04:33.303Z,3.7
2022-08-22T22:07:04.239Z,3.74
2022-08-22T22:09:34.343Z,3.8
2022-08-22T22:12:04.660Z,3.82
2022-08-22T22:14:34.842Z,3.82
2022-08-22T22:17:05.123Z,3.76
2022-08-22T22:19:35.333Z,3.79
2022-08-22T22:22:05.654Z,3.81
2022-08-22T22:24:35.860Z,3.85
2022-08-22T22:27:06.125Z,3.94
2022-08-22T22:29:36.340Z,3.94
2022-08-22T22:32:06.703Z,3.94
2022-08-22T22:34:36.827Z,3.92
2022-08-22T22:37:07.149Z,4.02
2022-08-22T22:39:37.323Z,4.02
2022-08-22T22:42:08.169Z,4
2022-08-22T22:44:38.397Z,3.96
2022-08-22T22:47:08.679Z,3.89
2022-08-22T22:49:39.468Z,4.13
2022-08-22T22:52:11.593Z,4.07
2022-08-22T22:54:40.540Z,3.98
2022-08-22T22:57:12.471Z,3.98
2022-08-22T22:59:41.597Z,3.99
2022-08-22T23:02:11.906Z,4.04
2022-08-22T23:04:42.202Z,4.07
2022-08-22T23:07:12.501Z,4.06
2022-08-22T23:09:44.736Z,4.03
2022-08-22T23:12:13.066Z,4
2022-08-22T23:14:43.316Z,4.05
2022-08-22T23:17:13.587Z,4.14
2022-08-22T23:19:43.820Z,4.09
2022-08-22T23:22:14.132Z,4.15
2022-08-22T23:24:44.331Z,4.09
2022-08-22T23:27:14.627Z,4.08
2022-08-22T23:29:44.930Z,4.09
2022-08-22T23:32:15.132Z,4.1
2022-08-22T23:34:45.590Z,4.12
2022-08-22T23:37:16.035Z,4.17
2022-08-22T23:39:46.210Z,4.18
2022-08-22T23:42:16.429Z,4.18
2022-08-22T23:44:46.671Z,4.25
2022-08-22T23:47:16.970Z,4.23
2022-08-22T23:49:47.332Z,4.24
2022-08-22T23:52:17.569Z,4.35
2022-08-22T23:54:47.512Z,4.39
2022-08-22T23:57:17.867Z,4.38
2022-08-22T23:59:57.844Z,4.43
